Flight Track Log - Related Links

Times and Time Zones

All times are in EDT time to prevent confusion due to time zone crossing. See the AWI3551 flight status page for this flight to view local times or setup timezone preferences in your user account.

Time Position Orientation Groundspeed Altitude Reporting Facility
EDT Latitude Longitude Course Direction KTS MPH feet Rate Location/Type
Mon 05:42:08 AM 42.9500 -78.7000 26° Northeast 154 177 1,600  Level Buffalo TRACON
Mon 05:43:14 AM 43.0000 -78.6667 26° Northeast 181 208 3,600 1,602 Climbing Buffalo TRACON
Mon 05:45:04 AM 42.8772 -78.6311 168° South 249 287 6,300 1,659 Climbing Cleveland Center
Mon 05:46:04 AM 42.8042 -78.6306 180° South 275 316 8,300 1,950 Climbing Cleveland Center
Mon 05:47:04 AM 42.7231 -78.6275 178° South 275 316 10,200 1,850 Climbing Cleveland Center
Mon 05:48:04 AM 42.6458 -78.6269 180° South 275 316 12,000 1,950 Climbing Cleveland Center
Mon 05:49:04 AM 42.5625 -78.6267 180° South 280 322 14,100 2,000 Climbing Cleveland Center
Mon 05:50:04 AM 42.4811 -78.6236 178° South 292 336 16,000 1,850 Climbing Cleveland Center
Mon 05:51:04 AM 42.4050 -78.5669 151° Southeast 292 336 17,800 1,500 Climbing Cleveland Center
Mon 05:52:04 AM 42.3311 -78.5103 150° Southeast 292 336 19,000 1,200 Climbing Cleveland Center
Mon 05:53:04 AM 42.2508 -78.4542 153° Southeast 310 357 20,200 1,000 Climbing Cleveland Center
Mon 05:54:04 AM 42.1664 -78.3925 152° Southeast 322 371 21,000 400 Climbing Cleveland Center
Mon 05:55:04 AM 42.0819 -78.3339 153° Southeast 334 384 21,000  Level Cleveland Center
Mon 05:56:04 AM 41.9992 -78.2697 150° Southeast 334 384 21,000  Level Cleveland Center
Mon 05:57:04 AM 41.9167 -78.2111 152° Southeast 334 384 21,000  Level Cleveland Center
Mon 05:58:04 AM 41.8322 -78.1503 152° Southeast 334 384 21,000  Level Cleveland Center
Mon 05:59:04 AM 41.7472 -78.0867 151° Southeast 334 384 21,000  Level Cleveland Center
Mon 06:00:04 AM 41.6606 -78.0317 155° Southeast 339 390 21,000  Level Cleveland Center
Mon 06:01:27 AM 41.5369 -77.9631 157° South 338 389 21,000  Level New York Center
Mon 06:02:28 AM 41.4481 -77.9150 158° South 343 395 21,000  Level New York Center
Mon 06:03:28 AM 41.3619 -77.8558 153° Southeast 343 395 21,000  Level New York Center
Mon 06:04:29 AM 41.2783 -77.7919 150° Southeast 348 400 21,000  Level New York Center
Mon 06:05:27 AM 41.1925 -77.7278 151° Southeast 353 406 21,000 -508 Level New York Center
Mon 06:06:27 AM 41.1206 -77.6378 137° Southeast 353 406 20,000 -1,000 Descending New York Center
Mon 06:07:27 AM 41.0492 -77.5397 134° Southeast 363 418 19,000 -496 Descending New York Center
Mon 06:08:28 AM 40.9775 -77.4419 134° Southeast 368 423 19,000  Level New York Center
Mon 06:09:29 AM 40.9061 -77.3442 134° Southeast 368 423 19,000  Level New York Center
Mon 06:10:27 AM 40.8342 -77.2469 134° Southeast 368 423 19,000  Level New York Center
Mon 06:11:28 AM 40.7625 -77.1494 134° Southeast 368 423 19,000  Level New York Center
Mon 06:12:28 AM 40.6903 -77.0553 135° Southeast 368 423 19,000  Level New York Center
Mon 06:13:29 AM 40.6222 -76.9614 134° Southeast 361 415 19,000 -555 Level New York Center
Mon 06:14:27 AM 40.5600 -76.8794 135° Southeast 356 410 17,900 -1,150 Descending New York Center
Mon 06:15:29 AM 40.4897 -76.7858 135° Southeast 356 410 16,700 -1,250 Descending New York Center
Mon 06:16:27 AM 40.4156 -76.6839 134° Southeast 356 410 15,400 -1,271 Descending New York Center
Mon 06:17:27 AM 40.3581 -76.5808 126° Southeast 350 403 14,200 -1,150 Descending New York Center
Mon 06:18:27 AM 40.3256 -76.4775 112° Southeast 344 396 13,100 -1,150 Descending New York Center
Mon 06:19:27 AM 40.2894 -76.3656 113° Southeast 339 390 11,900 -1,150 Descending New York Center
Mon 06:20:27 AM 40.2508 -76.2564 115° Southeast 339 390 10,800 -950 Descending New York Center
Mon 06:21:27 AM 40.2078 -76.1497 118° Southeast 327 376 10,000 -744 Descending New York Center
Mon 06:22:28 AM 40.1642 -76.0511 120° Southeast 316 364 9,300 -934 Descending New York Center
Mon 06:23:29 AM 40.1283 -75.9644 118° Southeast 291 335 8,100 -645 Descending New York Center
Mon 06:24:29 AM 40.0928 -75.8722 117° Southeast 286 329 8,000 -50 Descending New York Center
Mon 06:25:29 AM 40.0597 -75.7667 112° Southeast 275 316 8,000 -610 Level New York Center
Mon 06:26:27 AM 39.9967 -75.7322 157° South 257 296 6,800 -1,017 Descending New York Center
Mon 06:27:27 AM 39.9233 -75.6919 157° South 262 302 6,000 -446 Descending New York Center
Mon 06:28:28 AM 39.8764 -75.6642 156° South 232 267 5,900 -942 Descending New York Center
Mon 06:29:28 AM 39.8500 -75.6003 118° Southeast 181 208 4,100 -1,467 Descending New York Center
Mon 06:29:58 AM 39.8333 -75.5667 123° Southeast 181 208 3,700 -733 Descending Philadelphia TRACON
Mon 06:30:58 AM 39.8167 -75.5000 108° East 184 212 3,000 -600 Descending Philadelphia TRACON
Mon 06:31:58 AM 39.8333 -75.4333 72° East 199 229 2,500 -700 Descending Philadelphia TRACON
Mon 06:32:58 AM 39.8500 -75.3667 72° East 187 215 1,600 -895 Descending Philadelphia TRACON
Mon 06:33:52 AM 39.8500 -75.3167 90° East 153 176 800 -889 Descending Philadelphia TRACON
Mon 06:35:00 AM 39.8722 -75.2409 69° East  Level Estimated
Mon 06:42:00 AM 39.8722 -75.2409 101° East  Level Estimated

Login

Don't have an account? Register now (free) for customized features, flight alerts, and more!